Airport ID:K3K8
Update Time (UTC):01/08/2021 19:32
Wind Speed (Knots):10
Wind Direction (Magnetic):30
Temperature (°C):26
Dew Point (°C):18
Humidity (%):59
Altimeter (inHg):30.23
Density Altitude (Feet):3800
Visibility (Miles):6
Clouds (Hundreds of feet):FEW032 SCT038 BKN065
Present Weather:HZ
METAR:METAR K3K8 011930Z AUTO 04009KT 6SM HZ FEW032 SCT038 BKN065 26/18 A3023 RMK AO2

The data displayed is for advisory purposes only and is not to be used for flight planning or operations.